This is the latest recevied weather packets stored in our database for station/object IN3APK-3. If no packets are shown the sender has not sent any weather packets the latest 10 day(s).
| Time | Temp. | Humidity | Pressure | Rain* | Wind** | Luminosity | Snow |
|---|---|---|---|---|---|---|---|
| 1777550019 | 20° C | 51% | 1015.7 hPa | - | - | - | - |
| 1777549366 | 19.44° C | 52% | 1015.8 hPa | - | - | - | - |
| 1777548714 | 19.44° C | 55% | 1015.9 hPa | - | - | - | - |
| 1777548061 | 18.89° C | 58% | 1016 hPa | - | - | - | - |
| 1777547408 | 18.33° C | 58% | 1016.1 hPa | - | - | - | - |
| 1777546756 | 17.78° C | 59% | 1016.1 hPa | - | - | - | - |
| 1777544798 | 16.11° C | 61% | 1016.3 hPa | - | - | - | - |
| 1777544146 | 15.56° C | 62% | 1016.6 hPa | - | - | - | - |
| 1777543493 | 15° C | 63% | 1016.4 hPa | - | - | - | - |
| 1777542187 | 13.33° C | 67% | 1016.7 hPa | - | - | - | - |
| 1777541533 | 12.22° C | 68% | 1016.8 hPa | - | - | - | - |
| 1777540881 | 12.22° C | 68% | 1016.8 hPa | - | - | - | - |
| 1777540228 | 11.67° C | 69% | 1016.8 hPa | - | - | - | - |
| 1777539575 | 11.11° C | 69% | 1016.9 hPa | - | - | - | - |
| 1777538923 | 11.11° C | 69% | 1016.9 hPa | - | - | - | - |
| 1777538271 | 11.11° C | 70% | 1016.8 hPa | - | - | - | - |
| 1777537618 | 10.56° C | 70% | 1016.8 hPa | - | - | - | - |
| 1777536966 | 10.56° C | 69% | 1016.7 hPa | - | - | - | - |
| 1777536314 | 10.56° C | 69% | 1016.7 hPa | - | - | - | - |
| 1777535662 | 10.56° C | 69% | 1016.5 hPa | - | - | - | - |
| 1777535009 | 10° C | 69% | 1016.6 hPa | - | - | - | - |
| 1777534357 | 9.44° C | 69% | 1016.6 hPa | - | - | - | - |
| 1777533704 | 9.44° C | 70% | 1016.6 hPa | - | - | - | - |
| 1777533052 | 8.89° C | 70% | 1016.6 hPa | - | - | - | - |
| 1777532400 | 9.44° C | 69% | 1016.5 hPa | - | - | - | - |
* Rain since midnight (hover to see other rain measurements)
** Current wind speed in m/s (hover to see current wind gust speed)